Time;durP1;ratioP1;P1;durP2;ratioP2;P2;SDS_P1;SDS_P2;PMS_P1;PMS_P2;Temp;Humidity;BMP_temperature;BMP_pressure;BME280_temperature;BME280_humidity;BME280_pressure;Samples;Min_cycle;Max_cycle;Signal;HPM_P1;HPM_P2
2022/07/29 00:00:00;;;;;;;14.43;3.60;;;;;;;15.54;78.23;100438.97;4201787;28;20310;-62
2022/07/29 00:02:27;;;;;;;8.40;3.23;;;;;;;15.53;78.22;100437.31;4186396;28;20337;-61
2022/07/29 00:04:54;;;;;;;19.87;3.70;;;;;;;15.41;78.33;100439.56;4194717;28;20237;-62
2022/07/29 00:07:20;;;;;;;10.07;3.33;;;;;;;15.50;78.27;100443.88;4194200;28;20286;-63
2022/07/29 00:09:47;;;;;;;10.63;3.30;;;;;;;15.44;78.71;100439.19;4199553;28;20243;-61
2022/07/29 00:12:19;;;;;;;11.47;4.00;;;;;;;15.50;78.45;100449.22;4195324;28;20236;-62
2022/07/29 00:14:53;;;;;;;11.10;3.40;;;;;;;15.41;78.98;100445.75;4199298;28;22079;-62
2022/07/29 00:17:19;;;;;;;11.73;2.90;;;;;;;15.44;78.83;100447.25;4212511;28;21713;-62
2022/07/29 00:19:46;;;;;;;6.77;3.00;;;;;;;15.35;79.54;100450.97;4198256;28;20297;-62
2022/07/29 00:22:13;;;;;;;9.97;3.10;;;;;;;15.36;79.57;100447.31;4195903;28;20416;-64
2022/07/29 00:24:39;;;;;;;10.47;3.40;;;;;;;15.26;80.12;100441.31;4198256;28;22856;-62
2022/07/29 00:27:06;;;;;;;8.70;3.30;;;;;;;15.30;79.77;100445.31;4191006;28;21728;-61
2022/07/29 00:29:32;;;;;;;9.10;3.50;;;;;;;15.31;80.08;100445.16;4196520;28;21489;-61
2022/07/29 00:32:01;;;;;;;9.87;3.43;;;;;;;15.39;79.97;100449.63;4203335;28;20673;-62
2022/07/29 00:37:13;;;;;;;6.40;3.10;;;;;;;15.32;80.48;100441.44;4203458;28;20240;-62
2022/07/29 00:39:39;;;;;;;9.80;2.93;;;;;;;15.27;80.47;100443.81;4203685;28;20702;-62
2022/07/29 00:42:06;;;;;;;11.80;3.07;;;;;;;15.37;80.54;100444.44;4198730;28;23629;-64
2022/07/29 00:44:40;;;;;;;6.33;2.63;;;;;;;15.37;80.99;100443.59;4193208;28;20229;-62
2022/07/29 00:47:07;;;;;;;9.00;3.33;;;;;;;15.33;80.75;100436.91;4200882;28;25010;-60
2022/07/29 00:49:34;;;;;;;16.97;3.83;;;;;;;15.32;81.25;100435.25;4198171;28;21239;-61
2022/07/29 00:52:02;;;;;;;8.77;2.80;;;;;;;15.37;80.69;100432.88;4197521;28;20228;-64
2022/07/29 00:54:29;;;;;;;9.27;2.83;;;;;;;15.40;80.74;100436.06;4199951;28;22606;-63
2022/07/29 00:56:58;;;;;;;4.37;2.40;;;;;;;15.43;80.74;100431.31;4196369;28;20234;-62
2022/07/29 00:59:26;;;;;;;8.70;2.37;;;;;;;15.45;80.72;100435.50;4201309;28;20629;-61
2022/07/29 01:02:01;;;;;;;8.27;2.70;;;;;;;15.44;80.41;100441.88;4198946;28;20240;-62
2022/07/29 01:04:29;;;;;;;6.53;2.60;;;;;;;15.47;80.99;100438.84;4197730;28;20238;-64
2022/07/29 01:06:56;;;;;;;7.00;2.70;;;;;;;15.44;80.92;100439.19;4192615;28;20261;-62
2022/07/29 01:09:23;;;;;;;8.70;2.53;;;;;;;15.49;80.64;100434.13;4188382;28;20654;-66
2022/07/29 01:12:10;;;;;;;8.57;2.63;;;;;;;15.34;81.50;100441.28;4201211;28;20585;-64
2022/07/29 01:14:37;;;;;;;5.97;2.63;;;;;;;15.24;81.88;100433.47;4187186;28;20309;-63
2022/07/29 01:17:10;;;;;;;8.03;3.03;;;;;;;15.26;81.68;100436.78;4186154;28;21099;-62
2022/07/29 01:19:49;;;;;;;8.83;3.03;;;;;;;15.22;81.98;100443.53;4212693;28;22214;-63
2022/07/29 01:22:28;;;;;;;10.50;2.93;;;;;;;15.15;82.30;100435.34;4198121;28;20249;-61
2022/07/29 01:25:20;;;;;;;6.47;3.00;;;;;;;15.14;82.52;100439.00;4192713;28;20232;-64
2022/07/29 01:28:07;;;;;;;6.97;2.47;;;;;;;15.12;82.70;100437.50;4208236;28;20232;-61
2022/07/29 01:30:38;;;;;;;7.93;3.20;;;;;;;15.08;83.33;100431.69;4212123;28;21135;-59
2022/07/29 01:33:07;;;;;;;5.77;2.53;;;;;;;15.05;83.40;100434.69;4197823;28;20320;-63
2022/07/29 01:35:40;;;;;;;7.30;2.80;;;;;;;14.98;83.75;100431.03;4201047;28;22174;-61
2022/07/29 01:38:25;;;;;;;7.37;2.53;;;;;;;14.96;83.92;100430.38;4198208;28;21758;-63
2022/07/29 01:40:55;;;;;;;6.40;2.70;;;;;;;15.00;83.93;100439.75;4182817;28;20258;-64
2022/07/29 01:43:32;;;;;;;6.17;2.30;;;;;;;15.01;84.11;100435.22;4193124;28;20244;-64
2022/07/29 01:46:01;;;;;;;7.03;2.30;;;;;;;15.05;83.83;100433.88;4200979;28;20455;-62
2022/07/29 01:48:37;;;;;;;4.10;2.30;;;;;;;14.98;84.51;100439.94;4173537;28;20242;-63
2022/07/29 01:51:28;;;;;;;6.73;2.13;;;;;;;14.97;84.58;100440.94;4195251;28;20515;-61
2022/07/29 01:54:08;;;;;;;9.10;2.50;;;;;;;14.91;85.07;100438.09;4204789;28;20291;-62
2022/07/29 01:56:35;;;;;;;6.17;2.77;;;;;;;14.85;85.46;100433.47;4203624;28;20319;-61
2022/07/29 01:59:05;;;;;;;5.17;2.10;;;;;;;14.89;85.57;100440.13;4196498;28;20606;-61
2022/07/29 02:01:32;;;;;;;5.60;2.33;;;;;;;14.90;85.73;100431.09;4196997;28;22352;-62
2022/07/29 02:04:02;;;;;;;6.27;2.17;;;;;;;14.94;85.91;100435.94;4193239;28;20237;-63
2022/07/29 02:06:32;;;;;;;12.90;3.03;;;;;;;14.86;86.36;100437.78;4197703;28;20237;-61
2022/07/29 02:08:59;;;;;;;9.87;2.70;;;;;;;14.78;87.00;100441.34;4198309;28;20237;-63
2022/07/29 02:11:25;;;;;;;4.47;2.07;;;;;;;14.78;87.01;100442.16;4189835;28;21711;-64
2022/07/29 02:13:54;;;;;;;11.33;2.60;;;;;;;14.82;87.23;100442.69;4202792;28;20323;-61
2022/07/29 02:16:21;;;;;;;4.97;2.23;;;;;;;14.82;87.38;100445.34;4197740;28;20359;-62
2022/07/29 02:18:50;;;;;;;10.00;2.43;;;;;;;14.78;87.49;100444.03;4199391;28;23021;-61
2022/07/29 02:21:21;;;;;;;6.60;2.50;;;;;;;14.75;87.80;100439.84;4200244;28;20340;-61
2022/07/29 02:23:48;;;;;;;5.40;2.23;;;;;;;14.77;87.91;100445.00;4197154;28;20240;-62
2022/07/29 02:26:18;;;;;;;7.37;2.57;;;;;;;14.75;88.04;100447.88;4199319;28;21283;-60
2022/07/29 02:28:44;;;;;;;12.23;2.53;;;;;;;14.68;88.39;100433.50;4195935;28;20243;-61
2022/07/29 02:31:12;;;;;;;7.40;2.17;;;;;;;14.65;88.75;100436.50;4193204;28;22609;-60
2022/07/29 02:33:40;;;;;;;6.13;2.50;;;;;;;14.63;89.11;100443.88;4179783;28;20241;-61
2022/07/29 02:36:07;;;;;;;9.50;2.50;;;;;;;14.57;89.46;100437.38;4207090;28;20630;-61
2022/07/29 02:38:50;;;;;;;6.03;2.43;;;;;;;14.56;89.61;100440.22;4194005;28;20232;-64
2022/07/29 02:41:27;;;;;;;6.07;2.17;;;;;;;14.55;89.54;100428.66;4199375;28;20239;-62
2022/07/29 02:44:01;;;;;;;4.20;2.03;;;;;;;14.49;90.52;100441.88;4197419;28;20401;-61
2022/07/29 02:46:34;;;;;;;8.70;2.20;;;;;;;14.51;90.26;100440.69;4183237;28;20606;-62
2022/07/29 02:49:15;;;;;;;5.50;2.17;;;;;;;14.50;90.32;100440.88;4199876;28;20637;-63
2022/07/29 02:51:51;;;;;;;7.00;2.30;;;;;;;14.47;90.91;100446.56;4185094;28;20962;-62
2022/07/29 02:54:32;;;;;;;5.47;2.50;;;;;;;14.49;90.86;100445.41;4189952;28;20837;-61
2022/07/29 02:57:01;;;;;;;7.07;2.30;;;;;;;14.42;91.44;100446.22;4210508;28;20870;-60
2022/07/29 02:59:30;;;;;;;5.93;2.20;;;;;;;14.30;92.61;100443.91;4188667;28;22285;-60
2022/07/29 03:01:58;;;;;;;3.53;1.80;;;;;;;14.40;92.65;100442.88;4195871;28;22272;-62
2022/07/29 03:04:28;;;;;;;6.73;2.07;;;;;;;14.38;92.43;100445.75;4198202;28;21635;-61
2022/07/29 03:06:58;;;;;;;9.90;2.10;;;;;;;14.30;92.92;100443.91;4193556;28;23011;-60
2022/07/29 03:09:25;;;;;;;8.17;2.40;;;;;;;14.35;92.61;100444.25;4202228;28;20707;-61
2022/07/29 03:11:54;;;;;;;8.63;2.47;;;;;;;14.33;93.12;100446.25;4198927;28;26449;-62
2022/07/29 03:14:22;;;;;;;6.50;1.83;;;;;;;14.42;93.00;100448.91;4218668;28;20228;-60
2022/07/29 03:16:50;;;;;;;4.27;1.83;;;;;;;14.39;93.75;100443.91;4209831;28;20237;-61
2022/07/29 03:19:18;;;;;;;4.20;1.83;;;;;;;14.40;93.96;100458.94;4188664;28;23015;-60
2022/07/29 03:21:44;;;;;;;4.83;2.07;;;;;;;14.36;94.39;100451.25;4216170;28;20241;-63
2022/07/29 03:24:33;;;;;;;5.77;1.90;;;;;;;14.38;94.81;100452.94;4232009;28;20231;-62
2022/07/29 03:27:00;;;;;;;5.80;1.90;;;;;;;14.40;94.88;100450.91;4209721;28;21488;-62
2022/07/29 03:29:28;;;;;;;5.70;2.03;;;;;;;14.35;95.58;100454.97;4234240;28;24295;-62
2022/07/29 03:32:00;;;;;;;3.77;1.90;;;;;;;14.42;95.68;100455.13;4220728;28;20368;-60
2022/07/29 03:34:29;;;;;;;5.07;1.70;;;;;;;14.43;95.83;100442.56;4202286;28;20406;-62
2022/07/29 03:36:55;;;;;;;7.43;1.73;;;;;;;14.44;95.59;100447.72;4209380;28;20237;-61
2022/07/29 03:39:26;;;;;;;5.73;1.73;;;;;;;14.55;95.30;100449.25;4203000;28;20684;-63
2022/07/29 03:41:56;;;;;;;3.30;1.70;;;;;;;14.48;95.62;100442.88;4189342;28;20665;-63
2022/07/29 03:44:23;;;;;;;4.63;1.67;;;;;;;14.56;95.68;100442.88;4200570;28;20237;-62
2022/07/29 03:46:51;;;;;;;5.13;1.90;;;;;;;14.62;95.46;100444.91;4212659;28;20306;-62
2022/07/29 03:49:18;;;;;;;4.80;1.80;;;;;;;14.61;95.11;100445.06;4198728;28;20361;-62
2022/07/29 03:51:45;;;;;;;6.37;1.83;;;;;;;14.63;95.48;100453.75;4195583;28;20468;-63
2022/07/29 03:54:12;;;;;;;9.23;2.30;;;;;;;14.62;95.85;100450.25;4203759;28;20235;-61
2022/07/29 03:56:47;;;;;;;6.03;1.97;;;;;;;14.61;95.66;100443.22;4212041;28;21207;-62
2022/07/29 03:59:15;;;;;;;3.27;2.00;;;;;;;14.68;95.78;100451.41;4201483;28;20241;-61
2022/07/29 04:01:42;;;;;;;3.90;1.90;;;;;;;14.73;95.47;100457.94;4211972;28;22126;-61
2022/07/29 04:04:09;;;;;;;4.83;2.07;;;;;;;14.74;95.41;100456.06;4202367;28;20256;-64
2022/07/29 04:06:43;;;;;;;5.80;1.80;;;;;;;14.82;95.18;100461.44;4209274;28;21852;-62
2022/07/29 04:09:11;;;;;;;5.47;2.13;;;;;;;14.90;94.66;100460.56;4200397;28;22072;-62
2022/07/29 04:11:39;;;;;;;4.77;1.83;;;;;;;14.93;95.00;100452.16;4207668;28;20450;-62
2022/07/29 04:14:25;;;;;;;3.60;1.80;;;;;;;14.98;94.48;100447.13;4206085;28;21730;-62
2022/07/29 04:16:52;;;;;;;3.30;1.93;;;;;;;15.08;94.25;100458.50;4196772;28;20246;-59
2022/07/29 04:19:19;;;;;;;4.60;1.80;;;;;;;15.16;93.67;100458.44;4212823;28;20233;-63
2022/07/29 04:21:46;;;;;;;4.93;2.23;;;;;;;15.17;93.68;100454.75;4208720;28;23352;-61
2022/07/29 04:24:13;;;;;;;4.20;2.27;;;;;;;15.23;93.58;100458.56;4194927;28;20691;-62
2022/07/29 04:26:40;;;;;;;3.20;1.90;;;;;;;15.31;93.48;100463.06;4203190;28;22476;-60
2022/07/29 04:29:06;;;;;;;6.87;1.70;;;;;;;15.30;93.01;100461.41;4211302;28;20304;-63
2022/07/29 04:31:33;;;;;;;4.93;1.57;;;;;;;15.33;92.71;100459.19;4208208;28;20881;-62
2022/07/29 04:34:00;;;;;;;5.40;1.50;;;;;;;15.39;92.35;100461.19;4215045;28;21662;-61
2022/07/29 04:36:26;;;;;;;3.97;1.50;;;;;;;15.55;91.41;100457.56;4208575;28;20240;-61
2022/07/29 04:38:55;;;;;;;5.93;1.80;;;;;;;15.48;91.08;100463.81;4191808;28;20347;-62
2022/07/29 04:41:21;;;;;;;6.27;1.57;;;;;;;15.59;90.70;100460.72;4217606;28;21219;-61
2022/07/29 04:43:48;;;;;;;7.13;1.80;;;;;;;15.61;90.29;100462.22;4208978;28;20232;-61
2022/07/29 04:46:15;;;;;;;3.27;1.47;;;;;;;15.67;90.09;100460.69;4228809;28;20561;-60
2022/07/29 04:48:42;;;;;;;4.13;1.60;;;;;;;15.67;89.88;100463.38;4199277;28;20252;-62
2022/07/29 04:51:08;;;;;;;2.70;1.60;;;;;;;15.70;89.71;100470.22;4206793;28;22154;-60
2022/07/29 04:53:35;;;;;;;4.53;1.67;;;;;;;15.74;89.82;100475.09;4212460;28;21118;-62
2022/07/29 04:56:02;;;;;;;4.57;1.67;;;;;;;15.70;89.73;100472.91;4195811;28;21927;-65
2022/07/29 04:58:29;;;;;;;6.90;1.63;;;;;;;15.70;90.69;100475.59;4215455;28;21096;-62
2022/07/29 05:00:56;;;;;;;2.87;1.30;;;;;;;15.80;89.53;100470.84;4200272;28;20570;-62
2022/07/29 05:03:22;;;;;;;3.70;1.40;;;;;;;15.89;88.75;100469.78;4202592;28;20498;-64
2022/07/29 05:05:49;;;;;;;10.13;1.77;;;;;;;15.97;88.11;100467.06;4204306;28;22136;-63
2022/07/29 05:08:15;;;;;;;3.80;1.30;;;;;;;16.06;88.08;100477.72;4209799;28;20265;-64
2022/07/29 05:10:42;;;;;;;2.97;1.43;;;;;;;16.20;87.55;100477.78;4206596;28;22881;-61
2022/07/29 05:13:09;;;;;;;6.27;1.60;;;;;;;16.35;87.18;100474.28;4214839;28;22028;-63
2022/07/29 05:15:36;;;;;;;5.67;1.40;;;;;;;16.40;86.04;100483.47;4207837;28;20237;-65
2022/07/29 05:18:03;;;;;;;5.20;1.17;;;;;;;16.59;85.68;100492.03;4200612;28;20304;-62
2022/07/29 05:20:30;;;;;;;17.27;2.40;;;;;;;16.70;84.33;100488.06;4194490;28;20465;-62
2022/07/29 05:23:01;;;;;;;5.67;1.20;;;;;;;16.71;84.08;100484.34;4201930;28;20246;-61
2022/07/29 05:25:31;;;;;;;3.37;1.40;;;;;;;16.83;83.48;100496.34;4203869;28;20245;-63
2022/07/29 05:28:10;;;;;;;3.50;1.57;;;;;;;16.94;82.67;100493.19;4198588;28;22593;-60
2022/07/29 05:30:38;;;;;;;5.40;1.17;;;;;;;17.00;81.53;100488.94;4198368;28;20407;-61
2022/07/29 05:33:04;;;;;;;8.73;1.50;;;;;;;17.07;80.88;100490.69;4202175;28;20468;-65
2022/07/29 05:35:31;;;;;;;7.10;1.20;;;;;;;17.22;80.21;100492.53;4201065;28;20240;-64
2022/07/29 05:37:58;;;;;;;4.93;1.17;;;;;;;17.36;78.96;100490.84;4196837;28;20231;-62
2022/07/29 05:40:24;;;;;;;4.53;1.23;;;;;;;17.47;77.98;100503.81;4203319;28;20228;-61
2022/07/29 05:42:51;;;;;;;8.67;1.40;;;;;;;17.59;78.08;100491.56;4203507;28;21054;-63
2022/07/29 05:45:17;;;;;;;1.80;1.03;;;;;;;17.76;77.62;100491.31;4207689;28;20314;-62
2022/07/29 05:47:45;;;;;;;5.83;1.43;;;;;;;17.79;76.63;100489.06;4197066;28;20234;-61
2022/07/29 05:50:12;;;;;;;4.40;1.50;;;;;;;18.19;75.50;100494.03;4207109;28;21075;-61
2022/07/29 05:52:38;;;;;;;1.53;1.07;;;;;;;18.69;71.93;100484.91;4204170;28;21820;-63
2022/07/29 05:55:05;;;;;;;5.33;1.10;;;;;;;19.53;67.83;100491.19;4192724;28;20244;-63
2022/07/29 05:57:32;;;;;;;4.83;1.30;;;;;;;20.59;63.58;100507.59;4212178;28;20294;-66
2022/07/29 05:59:59;;;;;;;5.33;1.10;;;;;;;21.61;58.66;100510.69;4207774;28;21604;-61
2022/07/29 06:02:25;;;;;;;7.40;1.27;;;;;;;22.23;56.02;100508.25;4215537;28;21057;-65
2022/07/29 06:04:52;;;;;;;8.83;1.40;;;;;;;22.65;54.02;100516.66;4203604;28;20245;-62
2022/07/29 06:07:19;;;;;;;5.40;1.47;;;;;;;23.02;52.06;100514.03;4208170;28;20353;-62
2022/07/29 06:09:46;;;;;;;2.47;1.07;;;;;;;24.21;48.92;100519.84;4207906;28;20355;-62
2022/07/29 06:12:12;;;;;;;2.93;1.10;;;;;;;25.36;43.82;100531.25;4208905;28;20350;-62
2022/07/29 06:14:39;;;;;;;1.97;1.03;;;;;;;26.40;40.76;100534.84;4199306;28;21172;-62
2022/07/29 06:17:06;;;;;;;3.57;1.27;;;;;;;26.91;39.26;100532.94;4207500;28;20235;-63
2022/07/29 06:19:36;;;;;;;6.57;1.10;;;;;;;27.33;37.92;100537.91;4203610;28;20228;-65
2022/07/29 06:22:03;;;;;;;5.50;1.10;;;;;;;27.48;37.67;100538.09;4212792;28;20262;-62
2022/07/29 06:24:30;;;;;;;4.47;1.00;;;;;;;26.94;37.57;100530.50;4203040;28;20341;-63
2022/07/29 06:26:57;;;;;;;2.37;1.07;;;;;;;27.02;37.35;100536.63;4210413;28;20243;-63
2022/07/29 06:29:23;;;;;;;6.13;1.17;;;;;;;27.20;37.45;100539.09;4215051;28;20247;-62
2022/07/29 06:31:50;;;;;;;2.87;0.90;;;;;;;28.35;35.24;100539.03;4211934;28;22171;-63
2022/07/29 06:34:17;;;;;;;4.93;1.57;;;;;;;28.88;33.76;100547.38;4201124;28;20289;-64
2022/07/29 06:36:44;;;;;;;3.37;1.13;;;;;;;28.85;33.40;100547.94;4219172;28;20231;-60
2022/07/29 06:39:11;;;;;;;4.57;1.60;;;;;;;29.03;32.51;100550.22;4209898;28;22176;-61
2022/07/29 06:41:38;;;;;;;5.30;1.20;;;;;;;28.35;33.73;100544.50;4202068;28;25230;-61
2022/07/29 06:44:05;;;;;;;5.67;0.93;;;;;;;28.55;33.32;100543.88;4197716;28;20298;-62
2022/07/29 06:46:32;;;;;;;5.47;1.20;;;;;;;29.29;32.41;100555.88;4204349;28;21193;-61
2022/07/29 06:49:01;;;;;;;4.20;1.20;;;;;;;29.62;31.75;100551.09;4175578;28;20987;-61
2022/07/29 06:51:28;;;;;;;4.13;1.17;;;;;;;29.52;31.79;100556.50;4196020;28;21646;-62
2022/07/29 06:53:57;;;;;;;7.17;1.00;;;;;;;29.33;32.46;100558.91;4207564;28;20406;-62
2022/07/29 06:56:33;;;;;;;6.07;1.17;;;;;;;30.20;30.08;100549.00;4208534;28;20286;-60
2022/07/29 06:59:09;;;;;;;4.37;1.20;;;;;;;30.61;29.57;100551.81;4209007;28;20758;-61
2022/07/29 07:01:36;;;;;;;4.73;1.40;;;;;;;30.79;28.98;100552.31;4198573;28;20337;-65
2022/07/29 07:04:04;;;;;;;4.87;1.40;;;;;;;31.63;28.45;100558.16;4213910;28;20612;-64
2022/07/29 07:06:30;;;;;;;3.00;1.00;;;;;;;32.25;26.73;100556.72;4197572;28;20238;-60
2022/07/29 07:08:57;;;;;;;4.07;1.20;;;;;;;31.76;27.53;100555.63;4198374;28;20340;-62
2022/07/29 07:11:23;;;;;;;5.40;1.17;;;;;;;31.26;28.39;100556.66;4201089;28;20288;-65
2022/07/29 07:13:50;;;;;;;2.57;0.93;;;;;;;31.50;27.25;100554.13;4200254;28;20587;-62
2022/07/29 07:16:16;;;;;;;4.20;1.30;;;;;;;31.36;27.47;100556.63;4198156;28;20283;-63
2022/07/29 07:18:44;;;;;;;4.33;1.20;;;;;;;32.02;26.73;100557.44;4198358;28;21073;-64
2022/07/29 07:21:12;;;;;;;4.05;1.30;;;;;;;32.24;26.66;100559.75;4204830;28;20233;-65
2022/07/29 07:23:44;;;;;;;6.40;1.20;;;;;;;32.11;26.42;100555.72;4188823;28;20233;-65
2022/07/29 07:26:11;;;;;;;8.52;1.50;;;;;;;31.30;27.75;100550.31;4200126;28;20869;-62
2022/07/29 07:28:38;;;;;;;4.63;1.15;;;;;;;31.18;27.38;100559.97;4199813;28;20891;-64
2022/07/29 07:31:05;;;;;;;3.13;0.90;;;;;;;30.41;29.04;100546.31;4196588;28;20278;-63
2022/07/29 07:33:31;;;;;;;4.25;1.00;;;;;;;31.75;27.12;100558.69;4204780;28;26395;-63
2022/07/29 07:35:58;;;;;;;4.90;1.35;;;;;;;31.83;27.09;100551.75;4198629;28;20731;-63
2022/07/29 07:38:24;;;;;;;4.40;1.40;;;;;;;31.64;27.16;100548.81;4214809;28;20394;-64
2022/07/29 07:40:51;;;;;;;6.93;1.27;;;;;;;31.72;27.38;100557.28;4191260;28;20236;-62
2022/07/29 07:43:18;;;;;;;3.33;1.20;;;;;;;31.05;28.02;100550.41;4186130;28;20304;-63
2022/07/29 07:45:44;;;;;;;4.28;1.13;;;;;;;30.69;28.87;100545.75;4216554;28;20236;-65
2022/07/29 07:48:11;;;;;;;6.10;1.30;;;;;;;29.76;30.13;100548.66;4224988;28;21417;-66
2022/07/29 07:50:38;;;;;;;4.80;1.35;;;;;;;29.13;31.41;100545.94;4203222;28;21709;-62
2022/07/29 07:53:05;;;;;;;6.65;1.40;;;;;;;28.34;32.26;100536.56;4216964;28;22268;-65
2022/07/29 07:55:31;;;;;;;4.95;0.93;;;;;;;27.70;33.90;100527.16;4219806;28;20239;-63
2022/07/29 07:58:18;;;;;;;6.07;1.58;;;;;;;26.89;35.32;100521.44;4231103;28;21270;-62
2022/07/29 08:00:45;;;;;;;3.53;1.20;;;;;;;26.93;35.90;100523.41;4223716;28;20236;-63
2022/07/29 08:03:14;;;;;;;5.90;1.13;;;;;;;26.90;35.99;100518.47;4219079;28;22215;-63
2022/07/29 08:05:42;;;;;;;7.95;1.10;;;;;;;27.18;36.14;100522.09;4233360;28;20233;-61
2022/07/29 08:08:09;;;;;;;4.90;1.50;;;;;;;27.49;35.59;100526.09;4230082;28;20306;-63
2022/07/29 08:10:58;;;;;;;5.90;1.40;;;;;;;27.02;36.24;100528.44;4213636;28;20310;-64
2022/07/29 08:13:29;;;;;;;8.93;1.33;;;;;;;26.47;37.95;100519.94;4232538;28;20395;-67
2022/07/29 08:16:01;;;;;;;7.07;1.17;;;;;;;25.66;39.05;100514.69;4237180;28;20233;-64
2022/07/29 08:18:29;;;;;;;5.23;1.30;;;;;;;25.64;39.90;100503.19;4241658;28;21066;-69
2022/07/29 08:20:57;;;;;;;5.70;1.20;;;;;;;25.59;40.20;100511.28;4212677;28;20415;-64
2022/07/29 08:23:24;;;;;;;12.77;1.53;;;;;;;25.87;39.35;100505.03;4233447;28;20401;-65
2022/07/29 08:25:51;;;;;;;4.60;1.03;;;;;;;26.08;38.63;100508.09;4221428;28;20943;-66
2022/07/29 08:28:20;;;;;;;5.10;1.00;;;;;;;26.17;38.47;100503.06;4218491;28;20236;-68
2022/07/29 08:30:51;;;;;;;6.13;1.10;;;;;;;25.98;37.82;100506.03;4201157;28;20235;-64
2022/07/29 08:33:18;;;;;;;7.43;1.63;;;;;;;25.89;38.13;100507.50;4224209;28;20237;-67
2022/07/29 08:35:45;;;;;;;8.57;2.03;;;;;;;26.28;38.31;100504.91;4206346;28;20232;-64
2022/07/29 08:38:12;;;;;;;4.60;1.50;;;;;;;26.48;37.81;100507.97;4229314;28;20446;-67
2022/07/29 08:40:39;;;;;;;9.90;1.47;;;;;;;26.40;37.07;100511.09;4190434;28;20242;-63
2022/07/29 08:43:07;;;;;;;5.50;1.13;;;;;;;25.92;38.88;100506.16;4211573;28;20339;-62
2022/07/29 08:45:45;;;;;;;5.20;1.20;;;;;;;26.11;38.76;100505.72;4231881;28;20521;-65
2022/07/29 08:48:21;;;;;;;4.13;1.00;;;;;;;26.09;38.10;100512.50;4231509;28;20294;-65
2022/07/29 08:50:51;;;;;;;5.63;1.30;;;;;;;26.27;37.86;100514.16;4211945;28;20240;-61
2022/07/29 08:53:18;;;;;;;5.70;1.67;;;;;;;26.07;38.31;100515.47;4189212;28;20252;-66
2022/07/29 08:55:46;;;;;;;4.70;1.10;;;;;;;25.11;40.25;100517.06;4213025;28;20226;-63
2022/07/29 08:58:14;;;;;;;4.47;0.90;;;;;;;24.77;40.21;100512.25;4219909;28;21527;-61
2022/07/29 09:00:43;;;;;;;7.10;2.73;;;;;;;25.31;39.02;100501.19;4233050;28;20243;-65
2022/07/29 09:03:16;;;;;;;7.10;1.20;;;;;;;25.82;38.20;100495.88;4216585;28;20254;-64
2022/07/29 09:05:43;;;;;;;6.73;1.37;;;;;;;26.34;37.45;100501.19;4199798;28;20232;-64
2022/07/29 09:08:15;;;;;;;2.30;1.20;;;;;;;25.93;38.81;100497.75;4210878;28;20265;-62
2022/07/29 09:10:41;;;;;;;3.37;1.10;;;;;;;25.35;40.43;100490.63;4198285;28;21268;-62
2022/07/29 09:13:08;;;;;;;7.03;1.10;;;;;;;25.11;42.63;100479.75;4208010;28;20245;-63
2022/07/29 09:15:35;;;;;;;5.40;1.33;;;;;;;25.40;42.07;100488.84;4214730;28;20247;-62
2022/07/29 09:18:02;;;;;;;5.43;0.90;;;;;;;25.48;41.34;100491.16;4198803;28;20629;-64
2022/07/29 09:21:57;;;;;;;5.50;1.20;;;;;;;25.10;40.14;100483.56;4212353;28;20284;-62
2022/07/29 09:23:16;;;;;;;2.13;0.90;;;;;;;25.00;41.89;100483.31;4195585;28;20821;-63
2022/07/29 09:25:49;;;;;;;7.70;1.20;;;;;;;24.58;41.20;100480.75;4194883;28;20247;-64
2022/07/29 09:28:16;;;;;;;9.73;1.23;;;;;;;24.21;42.09;100480.94;4199468;28;20319;-63
2022/07/29 09:30:57;;;;;;;5.20;1.17;;;;;;;24.12;41.86;100480.44;4185403;28;21852;-63
2022/07/29 09:33:32;;;;;;;6.27;0.90;;;;;;;24.26;41.64;100478.34;4199714;28;20229;-62
2022/07/29 09:36:04;;;;;;;7.13;1.67;;;;;;;24.64;41.23;100479.81;4222252;28;20747;-62
2022/07/29 09:38:32;;;;;;;4.60;0.87;;;;;;;24.58;40.25;100478.03;4199759;28;20233;-65
2022/07/29 09:41:00;;;;;;;2.60;0.93;;;;;;;24.29;41.02;100477.03;4194914;28;20264;-63
2022/07/29 09:43:32;;;;;;;5.77;0.90;;;;;;;23.98;41.37;100471.66;4205049;28;20303;-65
2022/07/29 09:46:12;;;;;;;4.90;1.07;;;;;;;24.12;41.44;100479.63;4209716;28;20243;-62
2022/07/29 09:48:39;;;;;;;2.40;0.70;;;;;;;24.08;40.55;100471.09;4199532;28;21162;-65
2022/07/29 09:51:17;;;;;;;2.50;0.83;;;;;;;23.87;41.42;100464.31;4195848;28;25074;-63
2022/07/29 09:53:47;;;;;;;2.70;0.90;;;;;;;23.90;41.41;100466.53;4210749;28;20626;-66
2022/07/29 09:56:14;;;;;;;2.70;0.90;;;;;;;24.05;41.31;100466.13;4198781;28;20241;-65
2022/07/29 09:58:40;;;;;;;6.23;1.00;;;;;;;23.92;41.22;100467.16;4198115;28;23068;-62
2022/07/29 10:01:07;;;;;;;3.07;0.70;;;;;;;23.99;41.24;100459.72;4194572;28;20296;-66
2022/07/29 10:03:50;;;;;;;5.70;0.97;;;;;;;23.91;40.29;100468.22;4186955;28;20237;-66
2022/07/29 10:06:17;;;;;;;5.23;1.00;;;;;;;23.95;40.51;100463.97;4199173;28;20257;-64
2022/07/29 10:08:44;;;;;;;6.57;0.97;;;;;;;23.97;39.95;100461.84;4194707;28;20276;-64
2022/07/29 10:11:13;;;;;;;4.53;0.93;;;;;;;23.93;40.69;100457.13;4218078;28;21374;-65
2022/07/29 10:13:41;;;;;;;6.27;1.37;;;;;;;23.85;41.48;100452.81;4214643;28;20228;-64
2022/07/29 10:16:08;;;;;;;5.00;1.17;;;;;;;23.84;41.52;100453.09;4227402;28;21681;-62
2022/07/29 10:18:35;;;;;;;6.43;1.77;;;;;;;23.89;42.38;100443.16;4198254;28;20534;-62
2022/07/29 10:21:01;;;;;;;3.43;1.10;;;;;;;24.08;41.72;100446.63;4251193;28;20242;-63
2022/07/29 10:23:29;;;;;;;5.50;1.53;;;;;;;24.12;41.24;100444.28;4210117;28;20232;-61
2022/07/29 10:26:12;;;;;;;11.30;1.27;;;;;;;24.34;40.13;100450.78;4224372;28;20238;-63
2022/07/29 10:28:39;;;;;;;4.90;0.93;;;;;;;24.49;39.51;100441.34;4194360;28;20622;-63
2022/07/29 10:31:08;;;;;;;3.87;1.00;;;;;;;24.60;39.49;100445.97;4204633;28;20705;-61
2022/07/29 10:33:53;;;;;;;3.73;0.90;;;;;;;24.74;38.66;100447.38;4197477;28;22959;-63
2022/07/29 10:36:23;;;;;;;3.37;0.80;;;;;;;24.59;39.23;100449.75;4219858;28;20236;-65
2022/07/29 10:39:01;;;;;;;5.47;1.00;;;;;;;24.42;38.92;100442.28;4196788;28;20342;-63
2022/07/29 10:41:40;;;;;;;4.87;1.30;;;;;;;24.45;38.51;100443.69;4209251;28;20244;-63
2022/07/29 10:44:28;;;;;;;5.77;0.77;;;;;;;24.78;38.24;100445.00;4201712;28;20668;-63
2022/07/29 10:46:55;;;;;;;4.43;1.07;;;;;;;24.80;38.65;100446.44;4217366;28;20246;-61
2022/07/29 10:49:26;;;;;;;3.60;0.77;;;;;;;24.93;39.47;100439.06;4207316;28;20506;-65
2022/07/29 10:52:07;;;;;;;9.03;1.10;;;;;;;24.82;38.48;100444.31;4205641;28;20235;-64
2022/07/29 10:54:39;;;;;;;3.27;0.67;;;;;;;24.45;38.47;100435.53;4198170;28;20236;-65
2022/07/29 10:57:16;;;;;;;2.37;1.07;;;;;;;24.20;38.82;100430.31;4216676;28;21172;-63
2022/07/29 10:59:45;;;;;;;5.10;0.90;;;;;;;24.13;39.53;100429.59;4194863;28;20241;-62
2022/07/29 11:02:33;;;;;;;2.87;1.13;;;;;;;24.02;40.22;100432.09;4200174;28;25397;-65
2022/07/29 11:05:18;;;;;;;4.13;0.87;;;;;;;24.15;38.25;100427.47;4205537;28;20338;-63
2022/07/29 11:08:13;;;;;;;6.67;1.00;;;;;;;24.32;39.37;100422.97;4197366;28;20240;-63
2022/07/29 11:10:50;;;;;;;3.63;1.00;;;;;;;24.15;38.92;100424.75;4200233;28;20247;-65
2022/07/29 11:13:41;;;;;;;2.90;0.87;;;;;;;23.97;39.50;100420.22;4200683;28;21635;-63
2022/07/29 11:16:08;;;;;;;5.27;0.80;;;;;;;23.65;40.01;100416.94;4220138;28;20237;-63
2022/07/29 11:18:36;;;;;;;7.83;1.10;;;;;;;23.54;40.24;100416.69;4191802;28;21178;-68
2022/07/29 11:21:03;;;;;;;1.93;0.63;;;;;;;23.71;40.10;100405.16;4195434;28;24429;-62
2022/07/29 11:23:39;;;;;;;4.13;0.90;;;;;;;23.97;38.94;100407.47;4214059;28;20697;-64
2022/07/29 11:26:19;;;;;;;4.37;0.60;;;;;;;24.00;38.71;100409.75;4199629;28;20251;-62
2022/07/29 11:29:01;;;;;;;2.93;0.70;;;;;;;24.08;39.05;100415.88;4202388;28;22766;-64
2022/07/29 11:31:32;;;;;;;4.80;1.00;;;;;;;24.09;39.51;100410.22;4204115;28;21857;-65
2022/07/29 11:34:18;;;;;;;3.27;0.80;;;;;;;24.03;39.59;100411.16;4224844;28;20526;-64
2022/07/29 11:37:13;;;;;;;2.50;0.83;;;;;;;24.04;38.86;100417.41;4217265;28;24070;-65
2022/07/29 11:39:46;;;;;;;1.87;1.00;;;;;;;24.11;38.93;100408.06;4211084;28;21121;-61